Terminal Aerodrome Forecast
Issued by NWS

Current Version | Previous Version | Text Only | Print | Product List | Glossary Off
Versions: 1 2 3 4 5 6 7 8 9 10 11 12 13 14 15 16 17 18 19 20 21 22 23

000
FTUS41 KILN 270500
TAFLUK
TAF
KLUK 270522Z 2706/2806 VRB05KT P6SM BKN040
     FM271400 35010KT P6SM BKN040
     FM272000 32012G20KT P6SM SCT045
     FM280000 32008KT P6SM FEW040=

USA.gov is the U.S. government's official web portal to all federal, state and local government web resources and services.